航空気象通報

ウインドサーファーのための航空気象通報による風予報です。

10/31-11/1の航空気象通報(国内、海外)

2007年10月31日 23時41分08秒 | TAF
羽田空港
TAF RJTT 310841Z 311812 01006KT 9000 FEW015 SCT020 BKN050
BECMG 0003 14008KT
BECMG 0609 29006KT
日本時間1日03-09時:010度から6ノットの風
09-12時:風が変化
12-15時:140度から8ノットの風
15-18時:風が変化
18-21時:290度から6ノットの風


那覇空港
TAF ROAH 310844Z 311812 02016KT 9999 SCT015 BKN040
日本時間1日03-21時:020度から16ノットの風


マウイのカフルイ空港
PHOG 311132Z 311212 05012KT P6SM FEW035 SCT060
FM2100 05018G25KT P6SM FEW050
FM0300 05013G18KT P6SM FEW045
FM0800 06010KT P6SM FEW050
ハワイ時間31日02-11時:050度から12ノットの風
11-17時:050度から18ノット、突風25ノット
17-22時:050度から13ノット、突風18ノット
22時-1日02時:060度から10ノットの風


サイパン空港
PGSN 311138Z 311212 12006KT P6SM SCT020
FM2200 06010KT P6SM VCSH SCT020 SCT040
マリアナ時間31日22時-1日08時:120度から6ノットの風
08-22時:060度から10ノットの風


グアム空港
TAFPQ TAF PGUM 311138Z 311212 VRB04KT P6SM FEW025
FM2200 03008KT P6SM VCSH SCT020 SCT040
マリアナ時間31日22時-1日08時:風向不定4ノットの風
08-22時:030度から8ノットの風

コメント

10/30-31の航空気象通報(国内、海外)

2007年10月30日 23時17分58秒 | TAF
羽田空港
TAF RJTT 300844Z 301812 03010KT 9999 FEW020 BKN030
BECMG 0306 08008KT
日本時間31日03-12時:030度から10ノットの風
12-15時:風が変化
15-21時:080度から8ノットの風


那覇空港
TAF ROAH 300841Z 301812 04010KT 9999 FEW015 SCT025
日本時間31日03-21時:040度から10ノットの風


マウイのカフルイ空港
PHOG 301137Z 301212 04010KT P6SM VCSH SCT070
FM2000 05018G25KT P6SM SCT040
FM0500 05012KT P6SM SCT070
ハワイ時間30日02-10時:040度から10ノットの風
10-19時:050度から18ノット、突風25ノット
19時-31日02時:050度から12ノットの風


サイパン空港
PGSN 301126Z 301212 10005KT P6SM VCSH FEW020 BKN130
マリアナ時間30日22時-31日22時:100度から5ノットの風


グアム空港
TAFPQ TAF AMD PGUM 301307Z 301312 14006KT P6SM VCSH FEW015CB SCT060 BKN130
TEMPO 1315 5SM -TSRA SCT015CB BKN030 BKN120
マリアナ時間30日22時-31日22時:140度から6ノットの風
、但し、30日23時-31日01時:一時、
コメント

10/29-30の航空気象通報(国内、海外)

2007年10月29日 23時40分45秒 | TAF
羽田空港
TAF RJTT 290843Z 291812 34008KT 9999 FEW030 SCT060
BECMG 0306 09012KT
日本時間30日03-12時:340度から8ノットの風
12-15時:風が変化
15-21時:090度から12ノットの風


那覇空港
TAF ROAH 270839Z 271812 05010KT 9999 FEW030
日本時間28日03-21時:050度から10ノットの風


マウイのカフルイ空港
PHOG 291134Z 291212 05012KT P6SM VCSH SCT040 BKN070
FM2000 05018G25KT P6SM SCT040
FM0600 05012KT P6SM SCT060
ハワイ時間29日02-10時:050度から12ノットの風

10-20時:050度から18ノット、突風25ノット
20時-30日02時:050度から12ノットの風


サイパン空港
PGSN 291132Z 291212 07008KT P6SM VCSH FEW015 BKN140
マリアナ時間29日22時-30日22時:070度から8ノットの風


グアム空港
TAFPQ TAF AMD PGUM 291223Z 291212 07008KT P6SM VCSH SCT017 SCT040 BKN140
TEMPO 1214 5SM -SHRA BKN015CB OVC030
マリアナ時間29日22時-30日22時:070度から8ノットの風
、但し、20日22-24時:一時、
コメント

10/27-28の航空気象通報(国内、海外)

2007年10月27日 19時18分56秒 | TAF
羽田空港
TAF RJTT 270843Z 271812 35008KT 9999 FEW030
BECMG 0003 07008KT
BECMG 0306 15010KT
日本時間28日03-09時:350度から8ノットの風
09-12時:風が変化
12時:070度から8ノットの風
12-15時:風が変化
15-21時:150度から10ノットの風


那覇空港
TAF ROAH 270839Z 271812 05010KT 9999 FEW030
日本時間28日03-21時:050度から10ノットの風


マウイのカフルイ空港
PHOG 271136Z 271212 05012G18KT P6SM SCT040
FM2000 05018G28KT P6SM FEW040 SCT060
FM0600 06012G18KT P6SM SCT040
ハワイ時間27日02-10時:050度から12ノット、突風18ノット
10-20時:050度から18ノット、突風28ノット
20時-28日02時:050度から12ノット、突風18ノット


サイパン空港
PGSN 271122Z 271212 07010KT P6SM VCSH SCT020
マリアナ時間27日22時-28日22時:070度から10ノットの風


グアム空港
TAFPQ TAF PGUM 271122Z 271212 08010KT P6SM VCSH SCT020
マリアナ時間27日22時-28日22時:080度から10ノットの風

コメント

10/26-27の航空気象通報(国内、海外)

2007年10月26日 22時24分33秒 | TAF
羽田空港
TAF RJTT 260841Z 261812 02008KT 6000 -SHRA FEW005 SCT008 BKN015
BECMG 0003 02018KT 4000 -SHRA BR
TEMPO 0009 02020G30KT 2000 SHRA BR FEW005 BKN008 BKN010
BECMG 0912 6000 -SHRA
日本時間27日03-09時:020度から8ノットの風
09-12時:風が変化
12-21時:020度から18ノットの風


那覇空港
TAF ROAH 260842Z 261812 01016KT 9999 FEW025
日本時間27日03-21時:020度から16ノットの風


マウイのカフルイ空港
PHOG 261124Z 261212 05011KT P6SM SCT050
FM2000 05017G27KT P6SM FEW040
FM0600 05011KT P6SM FEW040
ハワイ時間26日02-10時:050度から11ノットの風
10-20時:050度から17ノット、突風27ノット
20時-27日02時:050度から11ノットの風


サイパン空港
PGSN 261127Z 261212 11010KT P6SM VCSH SCT020 SCT040
マリアナ時間26日22時-27日22時:110度から10ノットの風


グアム空港
TAFPQ TAF PGUM 261127Z 261212 12011KT P6SM VCSH SCT020 SCT040
マリアナ時間26日22時-27日22時:120度から11ノットの風

コメント